createdAt,value
2022-08-07T00:02:37.482Z,101351.19
2022-08-07T00:04:58.276Z,101357.66
2022-08-07T00:07:27.332Z,101346.38
2022-08-07T00:10:04.853Z,101346.56
2022-08-07T00:12:57.621Z,101342.78
2022-08-07T00:15:36.101Z,101341.84
2022-08-07T00:18:05.580Z,101337.28
2022-08-07T00:20:34.167Z,101338.59
2022-08-07T00:23:01.019Z,101340.91
2022-08-07T00:25:27.554Z,101332.94
2022-08-07T00:28:04.127Z,101330.97
2022-08-07T00:30:31.515Z,101330.91
2022-08-07T00:33:00.296Z,101334.81
2022-08-07T00:35:29.642Z,101330.91
2022-08-07T00:37:57.277Z,101322.72
2022-08-07T00:40:36.205Z,101323.56
2022-08-07T00:43:03.315Z,101328.44
2022-08-07T00:45:36.437Z,101328.78
2022-08-07T00:48:08.158Z,101327.69
2022-08-07T00:50:43.685Z,101320.97
2022-08-07T00:53:17.511Z,101325.94
2022-08-07T00:56:02.952Z,101314.09
2022-08-07T00:58:30.971Z,101316.47
2022-08-07T01:00:58.310Z,101312.97
2022-08-07T01:03:56.903Z,101315.78
2022-08-07T01:06:12.328Z,101315.31
2022-08-07T01:08:43.154Z,101315.03
2022-08-07T01:12:23.538Z,101321.06
2022-08-07T01:14:04.988Z,101314.63
2022-08-07T01:16:31.842Z,101307.34
2022-08-07T01:18:58.495Z,101303.09
2022-08-07T01:21:26.057Z,101309.16
2022-08-07T01:23:54.997Z,101309.06
2022-08-07T01:26:22.744Z,101311.84
2022-08-07T01:28:53.852Z,101296.94
2022-08-07T01:31:27.691Z,101298.97
2022-08-07T01:34:07.264Z,101293.22
2022-08-07T01:36:40.415Z,101300.97
2022-08-07T01:39:09.914Z,101304.66
2022-08-07T01:41:38.848Z,101299.91
2022-08-07T01:44:07.688Z,101297.31
2022-08-07T01:46:34.600Z,101304.00
2022-08-07T01:49:02.423Z,101298.78
2022-08-07T01:52:03.553Z,101306.00
2022-08-07T01:54:32.882Z,101305.44
2022-08-07T01:57:30.844Z,101309.97
2022-08-07T02:00:13.285Z,101311.69
2022-08-07T02:03:19.177Z,101301.63
2022-08-07T02:05:59.412Z,101301.22
2022-08-07T02:08:28.220Z,101298.75
2022-08-07T02:10:59.153Z,101288.09
2022-08-07T02:13:56.820Z,101294.34
2022-08-07T02:16:19.791Z,101288.19
2022-08-07T02:18:49.208Z,101288.09
2022-08-07T02:21:19.634Z,101284.97
2022-08-07T02:23:46.509Z,101292.00
2022-08-07T02:26:32.326Z,101285.91
2022-08-07T02:29:02.867Z,101286.00
2022-08-07T02:31:30.892Z,101295.44
2022-08-07T02:34:02.871Z,101292.66
2022-08-07T02:36:33.719Z,101295.28
2022-08-07T02:39:09.491Z,101286.75
2022-08-07T02:41:50.530Z,101293.03
2022-08-07T02:44:21.385Z,101283.97
2022-08-07T02:46:52.670Z,101289.09
2022-08-07T02:49:55.715Z,101282.13
2022-08-07T02:52:09.827Z,101287.69
2022-08-07T02:54:41.903Z,101274.78
2022-08-07T02:57:13.416Z,101280.03
2022-08-07T02:59:45.487Z,101280.66
2022-08-07T03:02:22.465Z,101278.03
2022-08-07T03:04:49.826Z,101277.63
2022-08-07T03:07:17.176Z,101267.66
2022-08-07T03:09:51.987Z,101275.16
2022-08-07T03:12:22.454Z,101271.22
2022-08-07T03:14:57.198Z,101274.47
2022-08-07T03:17:29.511Z,101267.91
2022-08-07T03:20:03.207Z,101268.91
2022-08-07T03:22:30.509Z,101272.47
2022-08-07T03:24:59.779Z,101264.88
2022-08-07T03:27:30.399Z,101272.50
2022-08-07T03:30:15.032Z,101273.47
2022-08-07T03:32:57.059Z,101269.63
2022-08-07T03:35:27.831Z,101268.34
2022-08-07T03:38:13.323Z,101269.19
2022-08-07T03:40:44.172Z,101263.53
2022-08-07T03:43:14.602Z,101257.63
2022-08-07T03:45:43.670Z,101257.94
2022-08-07T03:48:14.811Z,101259.94
2022-08-07T03:50:43.207Z,101269.81
2022-08-07T03:53:49.929Z,101269.53
2022-08-07T03:56:10.793Z,101279.50
2022-08-07T03:59:08.992Z,101275.19
2022-08-07T04:01:30.022Z,101269.22
2022-08-07T04:03:59.073Z,101270.50
2022-08-07T04:06:38.159Z,101275.22
2022-08-07T04:09:06.187Z,101276.88
2022-08-07T04:12:20.914Z,101270.78
2022-08-07T04:14:38.624Z,101272.47
2022-08-07T04:17:20.321Z,101275.91
2022-08-07T04:19:51.944Z,101282.72
2022-08-07T04:22:29.253Z,101281.97
2022-08-07T04:24:58.142Z,101275.06
2022-08-07T04:27:26.677Z,101277.50
2022-08-07T04:30:02.361Z,101282.34
2022-08-07T04:32:34.075Z,101285.31
2022-08-07T04:35:05.693Z,101294.00
2022-08-07T04:38:00.987Z,101288.13
2022-08-07T04:40:20.302Z,101293.28
2022-08-07T04:42:52.360Z,101302.72
2022-08-07T04:45:44.522Z,101302.13
2022-08-07T04:48:12.868Z,101299.41
2022-08-07T04:50:52.864Z,101291.56
2022-08-07T04:54:05.251Z,101302.59
2022-08-07T04:58:12.437Z,101304.94
2022-08-07T05:00:12.779Z,101306.16
2022-08-07T05:03:00.691Z,101305.31
2022-08-07T05:05:52.128Z,101309.13
2022-08-07T05:08:59.046Z,101311.13
2022-08-07T05:11:24.267Z,101315.63
2022-08-07T05:14:55.369Z,101312.47
2022-08-07T05:16:52.712Z,101312.91
2022-08-07T05:19:25.772Z,101326.38
2022-08-07T05:22:04.561Z,101324.44
2022-08-07T05:24:39.547Z,101330.50
2022-08-07T05:28:01.877Z,101323.66
2022-08-07T05:29:56.788Z,101323.59
2022-08-07T05:32:26.308Z,101330.09
2022-08-07T05:34:54.328Z,101322.91
2022-08-07T05:37:25.403Z,101322.97
2022-08-07T05:40:04.981Z,101322.19
2022-08-07T05:42:36.911Z,101326.34
2022-08-07T05:45:26.380Z,101340.88
2022-08-07T05:48:02.692Z,101336.56
2022-08-07T05:50:31.536Z,101338.53
2022-08-07T05:52:57.945Z,101341.84
2022-08-07T05:55:25.412Z,101346.41
2022-08-07T05:58:12.523Z,101350.56
2022-08-07T06:00:40.871Z,101347.22
2022-08-07T06:03:14.238Z,101346.97
2022-08-07T06:05:49.117Z,101353.59
2022-08-07T06:08:31.407Z,101356.22
2022-08-07T06:10:59.635Z,101356.22
2022-08-07T06:14:11.921Z,101349.13
2022-08-07T06:16:17.984Z,101353.13
2022-08-07T06:18:51.472Z,101353.47
2022-08-07T06:22:14.979Z,101359.78
2022-08-07T06:24:46.122Z,101355.75
2022-08-07T06:26:55.316Z,101350.16
2022-08-07T06:29:27.162Z,101351.16
2022-08-07T06:31:55.552Z,101351.50
2022-08-07T06:34:29.557Z,101346.59
2022-08-07T06:36:56.243Z,101346.78
2022-08-07T06:40:16.702Z,101349.81
2022-08-07T06:42:16.149Z,101349.66
2022-08-07T06:44:45.812Z,101346.25
2022-08-07T06:47:17.809Z,101353.03
2022-08-07T06:49:52.099Z,101345.38
2022-08-07T06:52:31.354Z,101343.44
2022-08-07T06:55:34.503Z,101338.22
2022-08-07T06:57:57.468Z,101335.50
2022-08-07T07:00:27.887Z,101336.06
2022-08-07T07:06:04.026Z,101332.63
2022-08-07T07:08:33.281Z,101333.78
2022-08-07T07:11:01.564Z,101338.22
2022-08-07T07:13:58.153Z,101330.22
2022-08-07T07:16:33.993Z,101330.94
2022-08-07T07:19:37.312Z,101328.66
2022-08-07T07:22:05.490Z,101336.63
2022-08-07T07:24:42.967Z,101335.63
2022-08-07T07:27:27.382Z,101340.97
2022-08-07T07:30:09.044Z,101331.28
2022-08-07T07:32:39.139Z,101333.06
2022-08-07T07:35:10.107Z,101333.19
2022-08-07T07:37:47.238Z,101338.44
2022-08-07T07:40:18.324Z,101329.06
2022-08-07T07:42:47.043Z,101325.97
2022-08-07T07:46:35.527Z,101325.03
2022-08-07T07:48:11.243Z,101314.22
2022-08-07T07:50:40.101Z,101313.19
2022-08-07T07:53:13.611Z,101327.81
2022-08-07T07:55:57.806Z,101322.16
2022-08-07T07:58:40.327Z,101319.59
2022-08-07T08:02:01.635Z,101314.69
2022-08-07T08:04:09.411Z,101312.19
2022-08-07T08:06:39.464Z,101311.19
2022-08-07T08:09:08.114Z,101313.63
2022-08-07T08:12:00.078Z,101309.84
2022-08-07T08:14:26.409Z,101314.13
2022-08-07T08:16:56.552Z,101307.31
2022-08-07T08:20:22.157Z,101311.63
2022-08-07T08:22:55.758Z,101297.25
2022-08-07T08:25:42.997Z,101301.13
2022-08-07T08:28:24.018Z,101291.72
2022-08-07T08:31:14.655Z,101295.22
2022-08-07T08:33:49.467Z,101302.47
2022-08-07T08:36:25.670Z,101299.06
2022-08-07T08:38:59.753Z,101298.91
2022-08-07T08:41:46.109Z,101296.38
2022-08-07T08:44:36.241Z,101290.44
2022-08-07T08:47:32.326Z,101289.19
2022-08-07T08:50:39.099Z,101283.56
2022-08-07T08:53:19.190Z,101289.34
2022-08-07T08:56:02.749Z,101285.69
2022-08-07T08:58:30.484Z,101288.94
2022-08-07T09:01:14.579Z,101282.72
2022-08-07T09:03:52.765Z,101283.41
2022-08-07T09:06:36.689Z,101282.00
2022-08-07T09:09:21.003Z,101281.84
2022-08-07T09:12:31.153Z,101283.53
2022-08-07T09:16:22.556Z,101277.38
2022-08-07T09:18:23.610Z,101274.25
2022-08-07T09:21:02.583Z,101276.53
2022-08-07T09:24:33.686Z,101272.38
2022-08-07T09:26:51.105Z,101269.41
2022-08-07T09:30:03.548Z,101272.28
2022-08-07T09:32:28.973Z,101266.53
2022-08-07T09:36:04.889Z,101257.09
2022-08-07T09:38:25.446Z,101267.59
2022-08-07T09:41:13.983Z,101250.84
2022-08-07T09:44:58.364Z,101245.66
2022-08-07T09:47:58.228Z,101244.97
2022-08-07T09:50:45.176Z,101241.16
2022-08-07T09:53:14.615Z,101231.81
2022-08-07T09:56:13.538Z,101235.53
2022-08-07T09:59:14.063Z,101231.00
2022-08-07T10:02:19.978Z,101226.28
2022-08-07T10:05:59.811Z,101215.75
2022-08-07T10:08:32.792Z,101211.97
2022-08-07T10:12:01.167Z,101209.16
2022-08-07T10:14:38.707Z,101198.66
2022-08-07T10:18:01.312Z,101208.69
2022-08-07T10:20:39.180Z,101200.78
2022-08-07T10:24:06.342Z,101201.09
2022-08-07T10:26:52.954Z,101196.97
2022-08-07T10:30:03.664Z,101195.44
2022-08-07T10:33:01.911Z,101187.50
2022-08-07T10:35:57.019Z,101190.78
2022-08-07T10:38:41.369Z,101187.59
2022-08-07T10:41:47.370Z,101177.59
2022-08-07T10:44:45.253Z,101174.03
2022-08-07T10:47:52.892Z,101178.38
2022-08-07T10:50:26.448Z,101179.03
2022-08-07T10:53:24.884Z,101170.09
2022-08-07T10:56:30.918Z,101166.91
2022-08-07T10:59:30.510Z,101162.97
2022-08-07T11:02:33.389Z,101169.41
2022-08-07T11:05:48.973Z,101158.97
2022-08-07T11:08:32.011Z,101152.75
2022-08-07T11:11:07.747Z,101150.00
2022-08-07T11:14:45.146Z,101150.63
2022-08-07T11:17:01.798Z,101149.50
2022-08-07T11:19:46.726Z,101144.13
2022-08-07T11:22:38.278Z,101142.34
2022-08-07T11:25:23.257Z,101137.97
2022-08-07T11:28:31.440Z,101138.59
2022-08-07T11:31:34.910Z,101130.94
2022-08-07T11:34:27.620Z,101137.03
2022-08-07T11:37:04.962Z,101122.66
2022-08-07T11:40:00.504Z,101125.19
2022-08-07T11:42:32.629Z,101117.91
2022-08-07T11:45:06.289Z,101121.97
2022-08-07T11:47:59.642Z,101103.34
2022-08-07T11:50:57.341Z,101108.94
2022-08-07T11:54:00.893Z,101110.56
2022-08-07T11:56:34.329Z,101109.06
2022-08-07T12:00:11.297Z,101106.31
2022-08-07T12:02:31.290Z,101108.19
2022-08-07T12:05:03.878Z,101107.47
2022-08-07T12:07:53.387Z,101102.22
2022-08-07T12:11:08.419Z,101106.34
2022-08-07T12:13:47.844Z,101092.22
2022-08-07T12:16:42.680Z,101091.97
2022-08-07T12:19:56.197Z,101085.94
2022-08-07T12:22:47.361Z,101086.50
2022-08-07T12:26:03.310Z,101086.75
2022-08-07T12:28:49.598Z,101077.88
2022-08-07T12:31:53.209Z,101069.06
2022-08-07T12:34:17.747Z,101076.94
2022-08-07T12:36:50.084Z,101065.56
2022-08-07T12:39:42.144Z,101064.56
2022-08-07T12:42:10.350Z,101073.56
2022-08-07T12:44:45.038Z,101064.63
2022-08-07T12:47:31.091Z,101059.56
2022-08-07T12:50:33.760Z,101055.97
2022-08-07T12:53:05.357Z,101054.47
2022-08-07T12:56:02.890Z,101060.78
2022-08-07T12:58:37.441Z,101056.66
2022-08-07T13:01:06.300Z,101055.59
2022-08-07T13:04:03.199Z,101059.84
2022-08-07T13:07:00.789Z,101052.09
2022-08-07T13:10:20.479Z,101048.84
2022-08-07T13:12:56.359Z,101041.22
2022-08-07T13:15:34.301Z,101040.28
2022-08-07T13:18:26.276Z,101045.38
2022-08-07T13:21:37.871Z,101041.66
2022-08-07T13:24:20.627Z,101038.03
2022-08-07T13:27:20.447Z,101041.06
2022-08-07T13:30:03.606Z,101039.00
2022-08-07T13:32:59.313Z,101039.06
2022-08-07T13:36:00.867Z,101032.31
2022-08-07T13:38:39.108Z,101026.69
2022-08-07T13:41:35.466Z,101033.72
2022-08-07T13:44:10.418Z,101030.00
2022-08-07T13:46:49.323Z,101018.91
2022-08-07T13:50:34.580Z,101008.91
2022-08-07T13:52:30.501Z,101005.94
2022-08-07T13:54:57.155Z,101006.59
2022-08-07T13:57:27.349Z,101008.19
2022-08-07T14:00:07.663Z,101010.50
2022-08-07T14:02:49.147Z,101005.19
2022-08-07T14:05:23.051Z,101005.19
2022-08-07T14:07:59.636Z,100991.19
2022-08-07T14:10:34.706Z,100983.56
2022-08-07T14:13:14.098Z,100986.25
2022-08-07T14:15:50.620Z,100978.47
2022-08-07T14:18:28.569Z,100985.34
2022-08-07T14:22:41.171Z,100985.63
2022-08-07T14:24:02.025Z,100983.94
2022-08-07T14:26:36.077Z,100974.81
2022-08-07T14:30:02.812Z,100974.84
2022-08-07T14:31:56.642Z,100974.09
2022-08-07T14:34:30.063Z,100973.41
2022-08-07T14:37:02.974Z,100963.34
2022-08-07T14:40:17.436Z,100970.38
2022-08-07T14:42:27.440Z,100966.63
2022-08-07T14:45:20.858Z,100958.19
2022-08-07T14:47:49.503Z,100953.38
2022-08-07T14:50:20.478Z,100955.50
2022-08-07T14:52:47.807Z,100965.88
2022-08-07T14:55:17.536Z,100964.50
2022-08-07T14:57:54.806Z,100964.44
2022-08-07T15:00:30.894Z,100961.59
2022-08-07T15:03:16.659Z,100966.47
2022-08-07T15:05:54.991Z,100959.31
2022-08-07T15:08:33.664Z,100954.53
2022-08-07T15:11:06.232Z,100957.06
2022-08-07T15:13:37.753Z,100956.38
2022-08-07T15:16:11.090Z,100945.81
2022-08-07T15:18:45.272Z,100966.09
2022-08-07T15:21:43.951Z,100955.19
2022-08-07T15:25:12.747Z,100942.31
2022-08-07T15:27:34.080Z,100952.19
2022-08-07T15:30:16.689Z,100942.59
2022-08-07T15:32:50.815Z,100945.19
2022-08-07T15:36:01.864Z,100945.00
2022-08-07T15:38:31.110Z,100944.25
2022-08-07T15:41:23.678Z,100945.84
2022-08-07T15:44:04.705Z,100937.31
2022-08-07T15:46:45.869Z,100935.59
2022-08-07T15:49:18.503Z,100936.78
2022-08-07T15:54:31.348Z,100925.03
2022-08-07T15:57:03.500Z,100930.84
2022-08-07T15:59:39.953Z,100924.78
2022-08-07T16:02:22.665Z,100929.06
2022-08-07T16:04:57.629Z,100930.78
2022-08-07T16:08:30.478Z,100921.97
2022-08-07T16:10:20.650Z,100922.38
2022-08-07T16:13:17.327Z,100925.59
2022-08-07T16:16:48.849Z,100922.13
2022-08-07T16:19:17.923Z,100913.72
2022-08-07T16:22:05.199Z,100918.63
2022-08-07T16:24:56.749Z,100915.38
2022-08-07T16:27:40.424Z,100905.53
2022-08-07T16:30:30.684Z,100911.81
2022-08-07T16:34:01.436Z,100912.59
2022-08-07T16:36:20.576Z,100911.69
2022-08-07T16:39:10.199Z,100906.75
2022-08-07T16:42:28.879Z,100910.72
2022-08-07T16:46:11.026Z,100916.03
2022-08-07T16:48:34.592Z,100915.59
2022-08-07T16:51:57.527Z,100919.91
2022-08-07T16:54:55.509Z,100913.44
2022-08-07T16:58:02.754Z,100909.94
2022-08-07T17:00:31.051Z,100909.81
2022-08-07T17:03:17.100Z,100912.09
2022-08-07T17:06:41.150Z,100913.03
2022-08-07T17:10:05.193Z,100918.28
2022-08-07T17:12:33.601Z,100910.00
2022-08-07T17:15:05.053Z,100911.81
2022-08-07T17:17:45.973Z,100907.16
2022-08-07T17:20:29.692Z,100904.78
2022-08-07T17:23:21.122Z,100906.94
2022-08-07T17:26:02.268Z,100916.41
2022-08-07T17:28:38.288Z,100905.34
2022-08-07T17:32:02.608Z,100910.41
2022-08-07T17:35:32.958Z,100912.81
2022-08-07T17:38:09.687Z,100910.53
2022-08-07T17:40:50.735Z,100917.72
2022-08-07T17:44:03.116Z,100909.69
2022-08-07T17:46:35.823Z,100911.53
2022-08-07T17:49:14.573Z,100920.97
2022-08-07T17:52:00.631Z,100919.28
2022-08-07T17:54:54.121Z,100919.44
2022-08-07T17:57:59.069Z,100920.84
2022-08-07T18:00:34.475Z,100913.03
2022-08-07T18:03:25.659Z,100921.31
2022-08-07T18:06:16.436Z,100919.97
2022-08-07T18:09:05.826Z,100917.53
2022-08-07T18:12:17.400Z,100918.03
2022-08-07T18:14:49.726Z,100917.22
2022-08-07T18:18:46.371Z,100922.44
2022-08-07T18:21:09.766Z,100929.16
2022-08-07T18:23:58.463Z,100930.41
2022-08-07T18:26:42.724Z,100933.41
2022-08-07T18:30:06.949Z,100939.44
2022-08-07T18:32:28.347Z,100935.34
2022-08-07T18:35:17.304Z,100945.72
2022-08-07T18:38:56.013Z,100944.19
2022-08-07T18:41:20.615Z,100949.91
2022-08-07T18:44:15.170Z,100951.47
2022-08-07T18:47:20.967Z,100948.31
2022-08-07T18:50:38.584Z,100957.91
2022-08-07T18:53:12.453Z,100958.66
2022-08-07T18:55:57.360Z,100955.19
2022-08-07T18:58:51.329Z,100961.38
2022-08-07T19:02:18.591Z,100966.69
2022-08-07T19:04:57.952Z,100960.38
2022-08-07T19:07:52.029Z,100961.94
2022-08-07T19:10:31.788Z,100965.63
2022-08-07T19:13:43.823Z,100977.13
2022-08-07T19:17:01.246Z,100970.78
2022-08-07T19:19:36.127Z,100970.66
2022-08-07T19:22:33.995Z,100979.13
2022-08-07T19:25:05.801Z,100976.28
2022-08-07T19:30:55.674Z,100994.31
2022-08-07T19:31:01.411Z,100993.06
2022-08-07T19:33:15.781Z,100991.59
2022-08-07T19:35:46.114Z,101005.31
2022-08-07T19:38:17.739Z,101000.88
2022-08-07T19:40:50.571Z,101002.19
2022-08-07T19:43:43.933Z,101006.66
2022-08-07T19:46:22.310Z,101010.06
2022-08-07T19:49:04.379Z,101016.19
2022-08-07T19:51:53.506Z,101015.97
2022-08-07T19:54:29.843Z,101018.50
2022-08-07T19:57:51.611Z,101012.22
2022-08-07T19:59:55.776Z,101026.56
2022-08-07T20:02:33.358Z,101028.22
2022-08-07T20:05:07.985Z,101016.41
2022-08-07T20:07:47.306Z,101021.91
2022-08-07T20:10:36.868Z,101036.44
2022-08-07T20:13:22.917Z,101027.16
2022-08-07T20:15:52.229Z,101026.94
2022-08-07T20:18:21.966Z,101023.75
2022-08-07T20:21:14.262Z,101026.72
2022-08-07T20:23:57.901Z,101027.31
2022-08-07T20:26:45.082Z,101018.28
2022-08-07T20:29:46.799Z,101025.66
2022-08-07T20:32:11.291Z,101022.25
2022-08-07T20:34:51.922Z,101029.59
2022-08-07T20:37:25.334Z,101030.41
2022-08-07T20:40:02.159Z,101038.19
2022-08-07T20:42:32.042Z,101040.47
2022-08-07T20:45:01.134Z,101032.47
2022-08-07T20:47:56.831Z,101030.38
2022-08-07T20:50:20.170Z,101032.03
2022-08-07T20:52:51.972Z,101032.84
2022-08-07T20:55:23.942Z,101038.28
2022-08-07T20:58:02.709Z,101031.34
2022-08-07T21:00:44.554Z,101033.63
2022-08-07T21:03:25.607Z,101027.50
2022-08-07T21:06:21.468Z,101033.31
2022-08-07T21:09:07.467Z,101026.78
2022-08-07T21:11:51.009Z,101022.47
2022-08-07T21:14:33.006Z,101024.72
2022-08-07T21:18:00.706Z,101025.91
2022-08-07T21:20:01.075Z,101023.38
2022-08-07T21:22:34.402Z,101023.16
2022-08-07T21:25:12.941Z,101024.84
2022-08-07T21:28:02.025Z,101021.66
2022-08-07T21:30:56.164Z,101021.16
2022-08-07T21:33:38.282Z,101011.22
2022-08-07T21:36:31.504Z,101017.28
2022-08-07T21:39:46.323Z,101024.03
2022-08-07T21:42:37.701Z,101023.19
2022-08-07T21:46:04.906Z,101021.41
2022-08-07T21:48:28.849Z,101012.56
2022-08-07T21:51:25.425Z,101022.56
2022-08-07T21:54:00.992Z,101025.38
2022-08-07T21:56:59.900Z,101031.34
2022-08-07T22:00:05.569Z,101035.09
2022-08-07T22:03:06.429Z,101026.84
2022-08-07T22:06:02.314Z,101027.38
2022-08-07T22:08:39.008Z,101029.56
2022-08-07T22:11:08.337Z,101022.75
2022-08-07T22:13:50.389Z,101032.25
2022-08-07T22:16:35.807Z,101028.00
2022-08-07T22:19:23.700Z,101034.25
2022-08-07T22:22:20.884Z,101033.78
2022-08-07T22:25:08.245Z,101037.56
2022-08-07T22:28:30.244Z,101039.94
2022-08-07T22:31:56.281Z,101037.91
2022-08-07T22:34:35.641Z,101050.31
2022-08-07T22:37:02.333Z,101036.00
2022-08-07T22:39:52.895Z,101040.56
2022-08-07T22:42:25.850Z,101041.09
2022-08-07T22:46:42.558Z,101048.25
2022-08-07T22:48:54.527Z,101049.47
2022-08-07T22:51:49.350Z,101043.81
2022-08-07T22:54:48.901Z,101045.50
2022-08-07T22:57:34.461Z,101045.69
2022-08-07T23:00:28.656Z,101038.56
2022-08-07T23:03:21.835Z,101043.16
2022-08-07T23:06:29.610Z,101048.44
2022-08-07T23:10:01.093Z,101049.94
2022-08-07T23:12:44.386Z,101042.63
2022-08-07T23:16:06.214Z,101046.75
2022-08-07T23:18:42.482Z,101041.13
2022-08-07T23:21:09.426Z,101043.19
2022-08-07T23:24:16.743Z,101049.84
2022-08-07T23:26:58.069Z,101051.44
2022-08-07T23:30:39.356Z,101049.84
2022-08-07T23:34:36.888Z,101047.00
2022-08-07T23:36:06.928Z,101048.44
2022-08-07T23:39:04.872Z,101044.63
2022-08-07T23:42:04.140Z,101047.28
2022-08-07T23:45:15.021Z,101042.88
2022-08-07T23:48:20.933Z,101047.75
2022-08-07T23:50:54.495Z,101039.88
2022-08-07T23:53:49.353Z,101051.94
2022-08-07T23:56:35.086Z,101045.47
